createdAt,value
2019-02-08T00:00:44.703Z,36.28
2019-02-08T00:03:13.552Z,33.73
2019-02-08T00:05:42.481Z,35.28
2019-02-08T00:08:11.421Z,37.35
2019-02-08T00:10:40.654Z,36.73
2019-02-08T00:13:09.538Z,36.35
2019-02-08T00:15:39.400Z,33.75
2019-02-08T00:18:08.271Z,35.10
2019-02-08T00:20:37.143Z,34.15
2019-02-08T00:23:06.066Z,37.80
2019-02-08T00:25:34.944Z,35.25
2019-02-08T00:28:04.500Z,37.15
2019-02-08T00:30:33.380Z,34.45
2019-02-08T00:33:02.250Z,36.70
2019-02-08T00:35:31.132Z,39.73
2019-02-08T00:38:00.014Z,36.80
2019-02-08T00:40:28.948Z,38.58
2019-02-08T00:42:58.396Z,41.68
2019-02-08T00:45:27.258Z,35.68
2019-02-08T00:47:56.124Z,34.15
2019-02-08T00:50:31.600Z,39.73
2019-02-08T00:53:00.469Z,39.23
2019-02-08T00:55:29.404Z,32.38
2019-02-08T00:57:58.540Z,38.58
2019-02-08T01:00:27.433Z,36.65
2019-02-08T01:02:56.300Z,35.65
2019-02-08T01:05:29.216Z,34.55
2019-02-08T01:07:58.261Z,34.03
2019-02-08T01:10:29.658Z,36.15
2019-02-08T01:12:59.868Z,36.50
2019-02-08T01:15:30.864Z,36.28
2019-02-08T01:18:00.078Z,38.80
2019-02-08T01:20:29.045Z,40.08
2019-02-08T01:22:57.888Z,35.92
2019-02-08T01:25:29.248Z,36.75
2019-02-08T01:27:58.159Z,42.83
2019-02-08T01:30:29.256Z,36.45
2019-02-08T01:32:58.396Z,40.38
2019-02-08T01:35:27.618Z,34.80
2019-02-08T01:37:57.527Z,31.57
2019-02-08T01:40:31.994Z,36.63
2019-02-08T01:43:00.856Z,34.67
2019-02-08T01:45:32.574Z,39.48
2019-02-08T01:48:01.979Z,41.45
2019-02-08T01:50:31.667Z,35.60
2019-02-08T01:53:00.599Z,42.80
2019-02-08T01:55:29.485Z,36.88
2019-02-08T01:57:58.632Z,43.23
2019-02-08T02:00:30.312Z,44.40
2019-02-08T02:02:59.830Z,36.38
2019-02-08T02:05:28.696Z,39.88
2019-02-08T02:07:57.558Z,38.33
2019-02-08T02:10:35.284Z,33.10
2019-02-08T02:13:05.179Z,34.55
2019-02-08T02:15:34.099Z,40.05
2019-02-08T02:18:03.297Z,36.03
2019-02-08T02:20:36.882Z,39.90
2019-02-08T02:23:06.906Z,38.38
2019-02-08T02:25:35.764Z,35.17
2019-02-08T02:28:05.605Z,38.75
2019-02-08T02:30:36.022Z,36.05
2019-02-08T02:33:10.037Z,37.78
2019-02-08T02:35:39.165Z,42.40
2019-02-08T02:38:08.205Z,40.25
2019-02-08T02:40:37.198Z,41.75
2019-02-08T02:43:06.955Z,37.63
2019-02-08T02:45:37.842Z,43.23
2019-02-08T02:48:08.347Z,42.78
2019-02-08T02:50:37.227Z,43.98
2019-02-08T02:53:06.431Z,38.25
2019-02-08T02:55:35.360Z,50.35
2019-02-08T02:58:04.967Z,40.55
2019-02-08T03:00:39.611Z,42.50
2019-02-08T03:03:08.650Z,36.03
2019-02-08T03:05:37.677Z,36.75
2019-02-08T03:08:08.991Z,38.80
2019-02-08T03:10:38.050Z,37.85
2019-02-08T03:13:07.553Z,36.77
2019-02-08T03:15:36.645Z,41.98
2019-02-08T03:18:06.329Z,40.05
2019-02-08T03:20:35.201Z,39.60
2019-02-08T03:23:04.737Z,49.18
2019-02-08T03:25:33.924Z,42.50
2019-02-08T03:28:02.808Z,39.83
2019-02-08T03:30:49.123Z,45.78
2019-02-08T03:33:18.066Z,44.55
2019-02-08T03:35:46.939Z,42.62
2019-02-08T03:38:15.833Z,42.73
2019-02-08T03:40:44.717Z,40.30
2019-02-08T03:43:13.755Z,37.60
2019-02-08T03:45:44.552Z,40.38
2019-02-08T03:48:13.600Z,39.08
2019-02-08T03:50:42.609Z,46.88
2019-02-08T03:53:11.600Z,38.80
2019-02-08T03:55:40.570Z,37.93
2019-02-08T03:58:09.744Z,41.20
2019-02-08T04:00:43.607Z,36.58
2019-02-08T04:03:12.483Z,36.80
2019-02-08T04:05:41.343Z,29.40
2019-02-08T04:08:10.398Z,36.25
2019-02-08T04:10:39.333Z,42.05
2019-02-08T04:13:08.202Z,41.02
2019-02-08T04:15:37.080Z,37.10
2019-02-08T04:18:06.095Z,40.43
2019-02-08T04:20:34.971Z,36.95
2019-02-08T04:23:03.927Z,34.35
2019-02-08T04:25:32.825Z,41.90
2019-02-08T04:28:01.683Z,38.73
2019-02-08T04:30:31.895Z,38.35
2019-02-08T04:33:01.957Z,33.08
2019-02-08T04:35:30.984Z,40.92
2019-02-08T04:37:59.863Z,38.78
2019-02-08T04:40:28.886Z,36.55
2019-02-08T04:42:58.003Z,33.13
2019-02-08T04:45:26.874Z,36.53
2019-02-08T04:47:55.912Z,34.33
2019-02-08T04:50:28.479Z,38.53
2019-02-08T04:52:58.387Z,38.80
2019-02-08T04:55:27.593Z,35.45
2019-02-08T04:57:56.643Z,37.98
2019-02-08T05:00:36.505Z,39.20
2019-02-08T05:03:05.993Z,33.90
2019-02-08T05:05:35.249Z,33.90
2019-02-08T05:08:04.691Z,37.35
2019-02-08T05:10:34.888Z,39.33
2019-02-08T05:13:03.771Z,32.35
2019-02-08T05:15:32.624Z,34.30
2019-02-08T05:18:01.487Z,34.65
2019-02-08T05:20:33.336Z,37.45
2019-02-08T05:23:02.294Z,32.85
2019-02-08T05:25:31.154Z,38.30
2019-02-08T05:28:00.026Z,29.72
2019-02-08T05:30:34.407Z,35.13
2019-02-08T05:33:03.807Z,33.88
2019-02-08T05:35:32.694Z,30.72
2019-02-08T05:38:01.587Z,32.40
2019-02-08T05:40:30.476Z,36.95
2019-02-08T05:42:59.404Z,33.28
2019-02-08T05:45:28.909Z,35.15
2019-02-08T05:47:57.774Z,27.17
2019-02-08T05:50:28.600Z,30.08
2019-02-08T05:52:57.726Z,31.33
2019-02-08T05:55:29.375Z,32.05
2019-02-08T05:57:58.445Z,27.77
2019-02-08T06:00:40.138Z,27.45
2019-02-08T06:03:09.225Z,33.15
2019-02-08T06:05:38.818Z,34.63
2019-02-08T06:08:09.409Z,34.63
2019-02-08T06:10:38.454Z,30.97
2019-02-08T06:13:08.645Z,28.77
2019-02-08T06:15:38.372Z,31.27
2019-02-08T06:18:08.777Z,31.57
2019-02-08T06:20:37.995Z,31.68
2019-02-08T06:23:07.531Z,30.15
2019-02-08T06:25:36.630Z,30.88
2019-02-08T06:28:06.231Z,35.08
2019-02-08T06:30:35.303Z,33.92
2019-02-08T06:33:04.916Z,37.38
2019-02-08T06:35:33.864Z,29.63
2019-02-08T06:38:02.720Z,30.57
2019-02-08T06:40:37.327Z,33.02
2019-02-08T06:43:06.739Z,31.65
2019-02-08T06:45:35.673Z,30.15
2019-02-08T06:48:06.391Z,33.23
2019-02-08T06:50:35.318Z,33.35
2019-02-08T06:53:05.171Z,31.10
2019-02-08T06:55:34.042Z,33.05
2019-02-08T06:58:07.345Z,24.95
2019-02-08T07:00:46.790Z,38.08
2019-02-08T07:03:33.837Z,35.63
2019-02-08T07:06:13.596Z,35.80
2019-02-08T07:08:59.303Z,26.50
2019-02-08T07:11:32.459Z,30.97
2019-02-08T07:14:11.527Z,36.15
2019-02-08T07:16:44.698Z,30.60
2019-02-08T07:19:24.162Z,30.85
2019-02-08T07:22:03.770Z,30.85
2019-02-08T07:24:40.178Z,28.98
2019-02-08T07:27:10.693Z,25.97
2019-02-08T07:29:51.223Z,27.45
2019-02-08T07:32:24.561Z,26.40
2019-02-08T07:35:13.821Z,32.53
2019-02-08T07:37:47.718Z,41.37
2019-02-08T07:40:26.894Z,25.68
2019-02-08T07:43:03.660Z,33.10
2019-02-08T07:45:36.580Z,28.55
2019-02-08T07:48:07.522Z,27.70
2019-02-08T07:50:47.033Z,37.90
2019-02-08T07:53:23.185Z,29.12
2019-02-08T07:55:56.688Z,26.75
2019-02-08T07:58:27.203Z,28.52
2019-02-08T08:01:04.596Z,26.60
2019-02-08T08:03:40.944Z,28.60
2019-02-08T08:06:23.680Z,27.35
2019-02-08T08:08:54.185Z,23.38
2019-02-08T08:11:39.655Z,23.80
2019-02-08T08:14:27.603Z,28.02
2019-02-08T08:17:01.150Z,25.70
2019-02-08T08:19:32.101Z,23.35
2019-02-08T08:22:18.577Z,19.20
2019-02-08T08:25:06.883Z,21.77
2019-02-08T08:27:37.472Z,19.50
2019-02-08T08:30:20.001Z,19.02
2019-02-08T08:32:52.106Z,22.13
2019-02-08T08:35:43.311Z,26.37
2019-02-08T08:38:24.055Z,20.82
2019-02-08T08:41:12.669Z,21.12
2019-02-08T08:43:56.699Z,17.52
2019-02-08T08:46:36.897Z,22.13
2019-02-08T08:49:23.950Z,21.12
2019-02-08T08:52:07.619Z,17.05
2019-02-08T08:54:54.455Z,18.80
2019-02-08T08:57:44.581Z,21.65
2019-02-08T09:00:34.475Z,19.27
2019-02-08T09:03:15.398Z,16.27
2019-02-08T09:05:56.141Z,16.32
2019-02-08T09:08:37.049Z,18.85
2019-02-08T09:11:23.281Z,16.05
2019-02-08T09:14:14.636Z,17.05
2019-02-08T09:17:07.815Z,12.43
2019-02-08T09:19:51.766Z,17.32
2019-02-08T09:22:35.721Z,14.78
2019-02-08T09:25:30.488Z,16.60
2019-02-08T09:28:18.912Z,14.83
2019-02-08T09:31:21.007Z,12.58
2019-02-08T09:34:15.502Z,14.03
2019-02-08T09:37:11.326Z,17.85
2019-02-08T09:40:11.769Z,14.40
2019-02-08T09:43:03.195Z,12.60
2019-02-08T09:45:47.531Z,15.68
2019-02-08T09:48:43.295Z,13.75
2019-02-08T09:51:32.022Z,19.52
2019-02-08T09:54:35.746Z,14.58
2019-02-08T09:57:42.414Z,13.53
2019-02-08T10:00:22.951Z,9.70
2019-02-08T10:03:05.730Z,20.33
2019-02-08T10:05:58.648Z,13.85
2019-02-08T10:08:49.762Z,13.90
2019-02-08T10:11:47.240Z,9.75
2019-02-08T10:14:21.894Z,11.25
2019-02-08T10:16:59.781Z,10.28
2019-02-08T10:19:34.101Z,19.67
2019-02-08T10:22:23.734Z,11.10
2019-02-08T10:25:13.417Z,14.17
2019-02-08T10:28:00.041Z,15.25
2019-02-08T10:30:58.958Z,10.60
2019-02-08T10:33:53.134Z,10.10
2019-02-08T10:36:48.901Z,9.57
2019-02-08T10:39:35.304Z,9.10
2019-02-08T10:42:30.854Z,10.57
2019-02-08T10:45:19.048Z,11.60
2019-02-08T10:48:12.932Z,12.50
2019-02-08T10:51:06.891Z,13.53
2019-02-08T10:53:54.986Z,8.33
2019-02-08T10:56:41.024Z,13.37
2019-02-08T10:59:35.302Z,12.40
2019-02-08T11:02:18.923Z,14.00
2019-02-08T11:05:19.078Z,12.17
2019-02-08T11:08:13.299Z,22.50
2019-02-08T11:10:47.486Z,18.73
2019-02-08T11:13:28.174Z,19.47
2019-02-08T11:16:19.492Z,12.47
2019-02-08T11:19:18.386Z,11.37
2019-02-08T11:21:48.832Z,11.63
2019-02-08T11:24:19.829Z,10.13
2019-02-08T11:26:48.600Z,10.43
2019-02-08T11:29:17.188Z,12.63
2019-02-08T11:31:45.773Z,14.90
2019-02-08T11:34:14.356Z,10.00
2019-02-08T11:36:44.215Z,12.63
2019-02-08T11:39:16.295Z,13.23
2019-02-08T11:41:45.612Z,13.13
2019-02-08T11:44:14.251Z,9.83
2019-02-08T11:46:42.834Z,17.47
2019-02-08T11:49:11.570Z,13.40
2019-02-08T11:51:40.182Z,8.63
2019-02-08T11:54:08.904Z,13.73
2019-02-08T11:56:38.443Z,10.73
2019-02-08T11:59:07.214Z,8.63
2019-02-08T12:01:37.479Z,12.73
2019-02-08T12:04:06.544Z,11.00
2019-02-08T12:06:35.106Z,13.47
2019-02-08T12:09:05.210Z,14.30
2019-02-08T12:11:33.793Z,13.80
2019-02-08T12:14:02.346Z,12.80
2019-02-08T12:16:30.919Z,10.90
2019-02-08T12:19:00.244Z,17.30
2019-02-08T12:21:28.835Z,9.97
2019-02-08T12:23:57.394Z,14.93
2019-02-08T12:26:25.977Z,12.90
2019-02-08T12:28:54.564Z,14.77
2019-02-08T12:31:23.150Z,11.90
2019-02-08T12:33:51.736Z,13.53
2019-02-08T12:36:20.316Z,10.50
2019-02-08T12:38:48.874Z,16.43
2019-02-08T12:41:17.468Z,11.90
2019-02-08T12:43:46.030Z,10.93
2019-02-08T12:46:14.621Z,21.17
2019-02-08T12:48:43.174Z,6.60
2019-02-08T12:51:11.795Z,15.43
2019-02-08T12:53:40.365Z,8.63
2019-02-08T12:56:08.985Z,13.10
2019-02-08T12:58:37.582Z,8.80
2019-02-08T13:01:06.164Z,5.80
2019-02-08T13:03:36.569Z,10.83
2019-02-08T13:06:05.706Z,10.33
2019-02-08T13:08:34.266Z,7.20
2019-02-08T13:11:02.826Z,11.73
2019-02-08T13:13:31.427Z,6.37
2019-02-08T13:15:59.995Z,14.40
2019-02-08T13:18:28.563Z,13.00
2019-02-08T13:20:57.161Z,14.20
2019-02-08T13:23:25.734Z,13.43
2019-02-08T13:25:54.318Z,10.90
2019-02-08T13:28:22.878Z,9.83
2019-02-08T13:30:51.435Z,14.97
2019-02-08T13:33:20.022Z,12.03
2019-02-08T13:35:48.587Z,8.77
2019-02-08T13:38:17.162Z,14.47
2019-02-08T13:40:45.790Z,15.47
2019-02-08T13:43:14.391Z,11.63
2019-02-08T13:45:42.959Z,9.67
2019-02-08T13:48:11.554Z,9.43
2019-02-08T13:50:40.111Z,22.77
2019-02-08T13:53:08.677Z,11.30
2019-02-08T13:55:37.265Z,9.93
2019-02-08T13:58:06.222Z,12.70
2019-02-08T14:00:37.944Z,6.60
2019-02-08T14:03:08.049Z,8.17
2019-02-08T14:05:36.633Z,8.27
2019-02-08T14:08:05.937Z,8.13
2019-02-08T14:10:34.525Z,12.97
2019-02-08T14:13:03.313Z,14.17
2019-02-08T14:15:32.038Z,12.90
2019-02-08T14:18:00.627Z,12.33
2019-02-08T14:20:29.953Z,19.73
2019-02-08T14:22:58.534Z,10.60
2019-02-08T14:25:27.292Z,10.43
2019-02-08T14:27:55.874Z,11.00
2019-02-08T14:30:29.991Z,11.97
2019-02-08T14:32:58.650Z,10.73
2019-02-08T14:35:27.321Z,13.47
2019-02-08T14:37:57.150Z,9.93
2019-02-08T14:40:27.483Z,8.23
2019-02-08T14:42:56.040Z,9.80
2019-02-08T14:45:24.780Z,13.80
2019-02-08T14:47:53.370Z,9.20
2019-02-08T14:50:29.742Z,7.27
2019-02-08T14:52:58.654Z,9.70
2019-02-08T14:55:27.476Z,11.97
2019-02-08T14:57:58.510Z,9.87
2019-02-08T15:00:27.064Z,11.60
2019-02-08T15:02:55.664Z,13.00
2019-02-08T15:05:24.309Z,7.10
2019-02-08T15:07:53.002Z,7.90
2019-02-08T15:10:27.514Z,7.43
2019-02-08T15:12:56.143Z,8.60
2019-02-08T15:15:24.734Z,8.27
2019-02-08T15:17:53.324Z,13.00
2019-02-08T15:20:27.290Z,11.67
2019-02-08T15:22:55.869Z,9.40
2019-02-08T15:25:24.435Z,7.33
2019-02-08T15:27:53.055Z,17.40
2019-02-08T15:30:32.802Z,10.27
2019-02-08T15:33:01.412Z,12.37
2019-02-08T15:35:31.225Z,11.63
2019-02-08T15:38:00.038Z,13.60
2019-02-08T15:40:51.869Z,9.27
2019-02-08T15:43:21.682Z,10.83
2019-02-08T15:45:58.583Z,11.60
2019-02-08T15:48:27.170Z,7.17
2019-02-08T15:50:55.761Z,12.97
2019-02-08T15:53:24.367Z,12.03
2019-02-08T15:55:55.969Z,12.57
2019-02-08T15:58:24.535Z,18.80
2019-02-08T16:00:53.134Z,6.10
2019-02-08T16:03:46.185Z,9.17
2019-02-08T16:06:14.804Z,9.63
2019-02-08T16:08:43.352Z,13.10
2019-02-08T16:11:11.975Z,7.87
2019-02-08T16:13:40.552Z,5.83
2019-02-08T16:16:09.503Z,13.57
2019-02-08T16:18:38.110Z,8.97
2019-02-08T16:21:06.740Z,7.73
2019-02-08T16:23:35.339Z,7.03
2019-02-08T16:26:04.568Z,8.23
2019-02-08T16:28:33.152Z,9.83
2019-02-08T16:31:01.773Z,12.57
2019-02-08T16:33:30.332Z,17.67
2019-02-08T16:35:58.936Z,8.33
2019-02-08T16:38:27.527Z,10.67
2019-02-08T16:40:56.098Z,9.20
2019-02-08T16:43:24.673Z,9.37
2019-02-08T16:45:53.506Z,8.27
2019-02-08T16:48:22.168Z,9.87
2019-02-08T16:50:50.796Z,11.97
2019-02-08T16:53:19.352Z,14.73
2019-02-08T16:55:47.989Z,7.80
2019-02-08T16:58:16.569Z,8.90
2019-02-08T17:00:45.164Z,10.70
2019-02-08T17:03:14.762Z,8.93
2019-02-08T17:05:43.546Z,8.30
2019-02-08T17:08:12.442Z,16.83
2019-02-08T17:10:41.094Z,7.40
2019-02-08T17:13:09.745Z,12.37
2019-02-08T17:15:38.976Z,7.93
2019-02-08T17:18:08.169Z,12.87
2019-02-08T17:20:39.191Z,6.33
2019-02-08T17:23:08.210Z,11.27
2019-02-08T17:25:36.925Z,10.77
2019-02-08T17:28:07.570Z,9.23
2019-02-08T17:30:36.597Z,6.97
2019-02-08T17:33:06.039Z,10.10
2019-02-08T17:35:34.610Z,18.70
2019-02-08T17:38:03.200Z,12.43
2019-02-08T17:40:40.584Z,12.47
2019-02-08T17:43:10.384Z,10.10
2019-02-08T17:45:38.951Z,7.33
2019-02-08T17:48:10.261Z,7.33
2019-02-08T17:50:38.815Z,22.97
2019-02-08T17:53:07.382Z,8.30
2019-02-08T17:55:35.974Z,13.90
2019-02-08T17:58:04.776Z,11.27
2019-02-08T18:00:52.654Z,6.67
2019-02-08T18:03:21.294Z,10.47
2019-02-08T18:05:50.030Z,9.47
2019-02-08T18:08:18.643Z,10.27
2019-02-08T18:10:47.282Z,7.37
2019-02-08T18:13:17.389Z,11.43
2019-02-08T18:15:45.991Z,10.20
2019-02-08T18:18:16.499Z,8.57
2019-02-08T18:20:56.898Z,9.43
2019-02-08T18:23:25.447Z,8.40
2019-02-08T18:25:54.029Z,7.40
2019-02-08T18:28:22.593Z,12.73
2019-02-08T18:30:51.206Z,8.33
2019-02-08T18:33:19.792Z,10.00
2019-02-08T18:35:48.359Z,6.73
2019-02-08T18:38:16.979Z,13.93
2019-02-08T18:40:45.554Z,11.93
2019-02-08T18:43:14.140Z,7.07
2019-02-08T18:45:42.751Z,7.33
2019-02-08T18:48:11.571Z,9.13
2019-02-08T18:50:42.578Z,13.97
2019-02-08T18:53:11.149Z,8.57
2019-02-08T18:55:39.739Z,9.03
2019-02-08T18:58:08.334Z,9.63
2019-02-08T19:00:40.489Z,8.43
2019-02-08T19:03:09.530Z,7.47
2019-02-08T19:05:38.247Z,10.80
2019-02-08T19:08:07.186Z,12.37
2019-02-08T19:10:35.777Z,8.97
2019-02-08T19:13:04.865Z,8.30
2019-02-08T19:15:33.427Z,9.77
2019-02-08T19:18:02.059Z,10.63
2019-02-08T19:20:30.643Z,13.30
2019-02-08T19:22:59.355Z,9.80
2019-02-08T19:25:31.005Z,23.13
2019-02-08T19:27:59.575Z,10.33
2019-02-08T19:30:30.991Z,8.63
2019-02-08T19:32:59.729Z,10.80
2019-02-08T19:35:29.855Z,16.13
2019-02-08T19:37:58.591Z,10.47
2019-02-08T19:40:29.691Z,8.33
2019-02-08T19:42:58.406Z,9.33
2019-02-08T19:45:27.132Z,7.53
2019-02-08T19:47:55.849Z,6.53
2019-02-08T19:50:26.979Z,6.40
2019-02-08T19:52:55.707Z,11.33
2019-02-08T19:55:24.714Z,9.13
2019-02-08T19:57:53.672Z,11.23
2019-02-08T20:00:30.412Z,11.67
2019-02-08T20:02:59.519Z,6.93
2019-02-08T20:05:28.165Z,11.83
2019-02-08T20:07:56.994Z,7.60
2019-02-08T20:10:28.003Z,8.40
2019-02-08T20:12:56.759Z,11.87
2019-02-08T20:15:27.239Z,9.33
2019-02-08T20:17:55.899Z,6.47
2019-02-08T20:20:24.587Z,7.03
2019-02-08T20:22:53.231Z,6.83
2019-02-08T20:25:30.106Z,9.83
2019-02-08T20:28:00.329Z,7.73
2019-02-08T20:30:30.766Z,6.37
2019-02-08T20:32:59.713Z,7.90
2019-02-08T20:35:28.452Z,12.63
2019-02-08T20:37:57.877Z,11.23
2019-02-08T20:40:34.949Z,9.57
2019-02-08T20:43:03.541Z,12.60
2019-02-08T20:45:33.588Z,16.17
2019-02-08T20:48:05.013Z,11.53
2019-02-08T20:50:33.668Z,8.30
2019-02-08T20:53:03.480Z,11.97
2019-02-08T20:55:32.619Z,9.27
2019-02-08T20:58:01.248Z,8.07
2019-02-08T21:00:37.007Z,6.93
2019-02-08T21:03:08.658Z,8.63
2019-02-08T21:05:37.423Z,8.70
2019-02-08T21:08:07.247Z,7.87
2019-02-08T21:10:36.514Z,5.93
2019-02-08T21:13:06.880Z,6.43
2019-02-08T21:15:35.606Z,7.37
2019-02-08T21:18:05.229Z,6.87
2019-02-08T21:20:34.165Z,6.63
2019-02-08T21:23:03.418Z,7.90
2019-02-08T21:25:34.437Z,10.47
2019-02-08T21:28:03.094Z,11.87
2019-02-08T21:30:31.683Z,8.43
2019-02-08T21:33:00.603Z,9.68
2019-02-08T21:35:29.229Z,7.17
2019-02-08T21:37:57.999Z,12.97
2019-02-08T21:40:28.308Z,11.03
2019-02-08T21:42:57.465Z,10.90
2019-02-08T21:45:31.695Z,11.08
2019-02-08T21:48:00.839Z,15.03
2019-02-08T21:50:30.181Z,13.37
2019-02-08T21:52:59.375Z,11.18
2019-02-08T21:55:29.578Z,7.00
2019-02-08T21:57:58.232Z,8.03
2019-02-08T22:00:32.402Z,8.43
2019-02-08T22:03:01.924Z,13.10
2019-02-08T22:05:36.112Z,13.70
2019-02-08T22:08:05.546Z,10.00
2019-02-08T22:10:34.419Z,13.08
2019-02-08T22:13:03.027Z,9.03
2019-02-08T22:15:39.717Z,10.45
2019-02-08T22:18:09.014Z,10.85
2019-02-08T22:20:38.391Z,10.08
2019-02-08T22:23:07.699Z,8.63
2019-02-08T22:25:36.634Z,8.95
2019-02-08T22:28:05.979Z,11.80
2019-02-08T22:30:35.217Z,8.78
2019-02-08T22:33:07.014Z,11.53
2019-02-08T22:35:35.914Z,12.85
2019-02-08T22:38:05.917Z,14.33
2019-02-08T22:40:34.762Z,11.75
2019-02-08T22:43:03.453Z,14.47
2019-02-08T22:45:44.014Z,13.75
2019-02-08T22:48:12.891Z,11.78
2019-02-08T22:50:41.759Z,11.03
2019-02-08T22:53:10.723Z,7.90
2019-02-08T22:55:39.598Z,12.10
2019-02-08T22:58:09.515Z,10.80
2019-02-08T23:00:54.145Z,10.20
2019-02-08T23:03:23.186Z,11.83
2019-02-08T23:05:52.051Z,17.32
2019-02-08T23:08:20.924Z,13.48
2019-02-08T23:10:49.783Z,9.90
2019-02-08T23:13:18.690Z,13.32
2019-02-08T23:15:47.592Z,9.98
2019-02-08T23:18:16.526Z,10.43
2019-02-08T23:20:45.409Z,12.80
2019-02-08T23:23:14.281Z,14.28
2019-02-08T23:25:43.141Z,10.28
2019-02-08T23:28:12.023Z,13.83
2019-02-08T23:30:40.914Z,13.15
2019-02-08T23:33:09.794Z,9.93
2019-02-08T23:35:42.933Z,12.47
2019-02-08T23:38:09.454Z,10.15
2019-02-08T23:40:38.343Z,15.13
2019-02-08T23:43:08.549Z,11.18
2019-02-08T23:45:37.492Z,10.78
2019-02-08T23:48:06.449Z,10.30
2019-02-08T23:50:35.328Z,10.32
2019-02-08T23:53:04.824Z,11.30
2019-02-08T23:55:33.690Z,11.43
2019-02-08T23:58:02.572Z,13.68
